Bridgwater, United Kingdom
Current Conditions -  °F | °C
As of 6:50 AM on Friday 28 Nov 2014 (Local Time) from EGDY Reporting Station
Haze Haze  
Wind Chill: 52°   Ceiling: 1500
Heat Index: 52°   Visibility: 5mi
Dew Point: 46°   Wind: 20mph
Humidity: 82%   Direction: 90°E
Pressure: 29.5"   Gusts: NA
Location:  51.13°N, 3°W
Report Text: EGDY 280650Z 09017KT 8000 HZ BKN015 11/08 Q0999 WHT TEMPO 6000 HZ SCT008 GRN
Loading
Personal Weather Stations






























Interactive Weather Map New forecast layout! Learn more

10-Day Weather Forecast

Advertisements
Track Severe Weather on mobile